sensor_id;sensor_type;location;lat;lon;timestamp;temperature;humidity
54788;DHT22;59598;48.112;16.280;2023-05-17T00:00:33;11.10;99.90
54788;DHT22;59598;48.112;16.280;2023-05-17T00:03:04;11.00;99.90
54788;DHT22;59598;48.112;16.280;2023-05-17T00:05:36;11.00;99.90
54788;DHT22;59598;48.112;16.280;2023-05-17T00:08:10;11.00;99.90
54788;DHT22;59598;48.112;16.280;2023-05-17T00:10:44;11.00;99.90
54788;DHT22;59598;48.112;16.280;2023-05-17T00:13:15;11.00;99.90
54788;DHT22;59598;48.112;16.280;2023-05-17T00:15:46;11.00;99.90
54788;DHT22;59598;48.112;16.280;2023-05-17T00:18:20;11.00;99.90
54788;DHT22;59598;48.112;16.280;2023-05-17T00:20:51;11.00;99.90
54788;DHT22;59598;48.112;16.280;2023-05-17T00:23:27;10.90;99.90
54788;DHT22;59598;48.112;16.280;2023-05-17T00:25:58;10.90;99.90
54788;DHT22;59598;48.112;16.280;2023-05-17T00:28:32;10.90;99.90
54788;DHT22;59598;48.112;16.280;2023-05-17T00:31:05;10.90;99.90
54788;DHT22;59598;48.112;16.280;2023-05-17T00:33:41;10.90;99.90
54788;DHT22;59598;48.112;16.280;2023-05-17T00:36:13;10.80;99.90
54788;DHT22;59598;48.112;16.280;2023-05-17T00:38:47;10.80;99.90
54788;DHT22;59598;48.112;16.280;2023-05-17T00:41:18;10.80;99.90
54788;DHT22;59598;48.112;16.280;2023-05-17T00:43:52;10.70;99.90
54788;DHT22;59598;48.112;16.280;2023-05-17T00:46:26;10.70;99.90
54788;DHT22;59598;48.112;16.280;2023-05-17T00:48:57;10.70;99.90
54788;DHT22;59598;48.112;16.280;2023-05-17T00:51:29;10.70;99.90
54788;DHT22;59598;48.112;16.280;2023-05-17T00:54:03;10.70;99.90
54788;DHT22;59598;48.112;16.280;2023-05-17T00:56:35;10.70;99.90
54788;DHT22;59598;48.112;16.280;2023-05-17T00:59:08;10.70;99.90
54788;DHT22;59598;48.112;16.280;2023-05-17T01:01:43;10.60;99.90
54788;DHT22;59598;48.112;16.280;2023-05-17T01:04:15;10.70;99.90
54788;DHT22;59598;48.112;16.280;2023-05-17T01:06:47;10.70;99.90
54788;DHT22;59598;48.112;16.280;2023-05-17T01:09:19;10.60;99.90
54788;DHT22;59598;48.112;16.280;2023-05-17T01:11:53;10.60;99.90
54788;DHT22;59598;48.112;16.280;2023-05-17T01:17:33;10.60;99.90
54788;DHT22;59598;48.112;16.280;2023-05-17T01:25:34;10.60;99.90
54788;DHT22;59598;48.112;16.280;2023-05-17T01:28:07;10.50;99.90
54788;DHT22;59598;48.112;16.280;2023-05-17T01:30:44;10.50;99.90
54788;DHT22;59598;48.112;16.280;2023-05-17T01:33:18;10.50;99.90
54788;DHT22;59598;48.112;16.280;2023-05-17T01:35:50;10.50;99.90
54788;DHT22;59598;48.112;16.280;2023-05-17T01:38:21;10.50;99.90
54788;DHT22;59598;48.112;16.280;2023-05-17T01:41:04;10.50;99.90
54788;DHT22;59598;48.112;16.280;2023-05-17T01:46:40;10.40;99.90
54788;DHT22;59598;48.112;16.280;2023-05-17T01:49:28;10.40;99.90
54788;DHT22;59598;48.112;16.280;2023-05-17T01:52:06;10.40;99.90
54788;DHT22;59598;48.112;16.280;2023-05-17T01:55:09;10.40;99.90
54788;DHT22;59598;48.112;16.280;2023-05-17T01:57:45;10.40;99.90
54788;DHT22;59598;48.112;16.280;2023-05-17T02:00:23;10.40;99.90
54788;DHT22;59598;48.112;16.280;2023-05-17T02:02:55;10.30;99.90
54788;DHT22;59598;48.112;16.280;2023-05-17T02:05:28;10.30;99.90
54788;DHT22;59598;48.112;16.280;2023-05-17T02:08:01;10.30;99.90
54788;DHT22;59598;48.112;16.280;2023-05-17T02:10:33;10.30;99.90
54788;DHT22;59598;48.112;16.280;2023-05-17T02:13:05;10.30;99.90
54788;DHT22;59598;48.112;16.280;2023-05-17T02:15:37;10.20;99.90
54788;DHT22;59598;48.112;16.280;2023-05-17T02:18:11;10.20;99.90
54788;DHT22;59598;48.112;16.280;2023-05-17T02:20:42;10.20;99.90
54788;DHT22;59598;48.112;16.280;2023-05-17T02:23:19;10.20;99.90
54788;DHT22;59598;48.112;16.280;2023-05-17T02:25:54;10.20;99.90
54788;DHT22;59598;48.112;16.280;2023-05-17T02:28:26;10.20;99.90
54788;DHT22;59598;48.112;16.280;2023-05-17T02:31:00;10.20;99.90
54788;DHT22;59598;48.112;16.280;2023-05-17T02:33:32;10.20;99.90
54788;DHT22;59598;48.112;16.280;2023-05-17T02:36:04;10.10;99.90
54788;DHT22;59598;48.112;16.280;2023-05-17T02:38:35;10.20;99.90
54788;DHT22;59598;48.112;16.280;2023-05-17T02:41:07;10.10;99.90
54788;DHT22;59598;48.112;16.280;2023-05-17T02:43:38;10.10;99.90
54788;DHT22;59598;48.112;16.280;2023-05-17T02:46:09;10.10;99.90
54788;DHT22;59598;48.112;16.280;2023-05-17T02:48:44;10.10;99.90
54788;DHT22;59598;48.112;16.280;2023-05-17T02:51:20;10.10;99.90
54788;DHT22;59598;48.112;16.280;2023-05-17T02:53:54;10.10;99.90
54788;DHT22;59598;48.112;16.280;2023-05-17T02:56:29;10.00;99.90
54788;DHT22;59598;48.112;16.280;2023-05-17T02:59:01;10.00;99.90
54788;DHT22;59598;48.112;16.280;2023-05-17T03:01:33;10.00;99.90
54788;DHT22;59598;48.112;16.280;2023-05-17T03:04:04;10.00;99.90
54788;DHT22;59598;48.112;16.280;2023-05-17T03:06:39;10.00;99.90
54788;DHT22;59598;48.112;16.280;2023-05-17T03:09:11;10.00;99.90
54788;DHT22;59598;48.112;16.280;2023-05-17T03:11:42;10.00;99.90
54788;DHT22;59598;48.112;16.280;2023-05-17T03:14:16;9.90;99.90
54788;DHT22;59598;48.112;16.280;2023-05-17T03:16:47;9.90;99.90
54788;DHT22;59598;48.112;16.280;2023-05-17T03:19:21;9.90;99.90
54788;DHT22;59598;48.112;16.280;2023-05-17T03:21:55;9.90;99.90
54788;DHT22;59598;48.112;16.280;2023-05-17T03:24:26;9.90;99.90
54788;DHT22;59598;48.112;16.280;2023-05-17T03:27:03;9.80;99.90
54788;DHT22;59598;48.112;16.280;2023-05-17T03:29:38;9.80;99.90
54788;DHT22;59598;48.112;16.280;2023-05-17T03:32:14;9.80;99.90
54788;DHT22;59598;48.112;16.280;2023-05-17T03:34:45;9.80;99.90
54788;DHT22;59598;48.112;16.280;2023-05-17T03:37:17;9.70;99.90
54788;DHT22;59598;48.112;16.280;2023-05-17T03:39:50;9.70;99.90
54788;DHT22;59598;48.112;16.280;2023-05-17T03:42:22;9.70;99.90
54788;DHT22;59598;48.112;16.280;2023-05-17T03:44:55;9.70;99.90
54788;DHT22;59598;48.112;16.280;2023-05-17T03:47:26;9.70;99.90
54788;DHT22;59598;48.112;16.280;2023-05-17T03:50:00;9.70;99.90
54788;DHT22;59598;48.112;16.280;2023-05-17T03:52:33;9.70;99.90
54788;DHT22;59598;48.112;16.280;2023-05-17T03:55:07;9.60;99.90
54788;DHT22;59598;48.112;16.280;2023-05-17T03:57:39;9.60;99.90
54788;DHT22;59598;48.112;16.280;2023-05-17T04:00:16;9.60;99.90
54788;DHT22;59598;48.112;16.280;2023-05-17T04:02:52;9.60;99.90
54788;DHT22;59598;48.112;16.280;2023-05-17T04:05:25;9.50;99.90
54788;DHT22;59598;48.112;16.280;2023-05-17T04:08:00;9.50;99.90
54788;DHT22;59598;48.112;16.280;2023-05-17T04:10:31;9.50;99.90
54788;DHT22;59598;48.112;16.280;2023-05-17T04:13:04;9.50;99.90
54788;DHT22;59598;48.112;16.280;2023-05-17T04:15:36;9.50;99.90
54788;DHT22;59598;48.112;16.280;2023-05-17T04:18:07;9.50;99.90
54788;DHT22;59598;48.112;16.280;2023-05-17T04:20:38;9.40;99.90
54788;DHT22;59598;48.112;16.280;2023-05-17T04:23:10;9.40;99.90
54788;DHT22;59598;48.112;16.280;2023-05-17T04:25:44;9.40;99.90
54788;DHT22;59598;48.112;16.280;2023-05-17T04:28:20;9.40;99.90
54788;DHT22;59598;48.112;16.280;2023-05-17T04:30:52;9.30;99.90
54788;DHT22;59598;48.112;16.280;2023-05-17T04:33:23;9.30;99.90
54788;DHT22;59598;48.112;16.280;2023-05-17T04:35:57;9.30;99.90
54788;DHT22;59598;48.112;16.280;2023-05-17T04:38:28;9.20;99.90
54788;DHT22;59598;48.112;16.280;2023-05-17T04:41:05;9.20;99.90
54788;DHT22;59598;48.112;16.280;2023-05-17T04:43:39;9.20;99.90
54788;DHT22;59598;48.112;16.280;2023-05-17T04:46:10;9.10;99.90
54788;DHT22;59598;48.112;16.280;2023-05-17T04:48:43;9.10;99.90
54788;DHT22;59598;48.112;16.280;2023-05-17T04:51:16;9.10;99.90
54788;DHT22;59598;48.112;16.280;2023-05-17T04:53:47;9.10;99.90
54788;DHT22;59598;48.112;16.280;2023-05-17T04:56:21;9.00;99.90
54788;DHT22;59598;48.112;16.280;2023-05-17T04:58:53;9.00;99.90
54788;DHT22;59598;48.112;16.280;2023-05-17T05:01:27;9.00;99.90
54788;DHT22;59598;48.112;16.280;2023-05-17T05:04:00;9.00;99.90
54788;DHT22;59598;48.112;16.280;2023-05-17T05:06:39;9.00;99.90
54788;DHT22;59598;48.112;16.280;2023-05-17T05:09:11;8.90;99.90
54788;DHT22;59598;48.112;16.280;2023-05-17T05:11:45;8.90;99.90
54788;DHT22;59598;48.112;16.280;2023-05-17T05:14:18;8.90;99.90
54788;DHT22;59598;48.112;16.280;2023-05-17T05:16:52;8.80;99.90
54788;DHT22;59598;48.112;16.280;2023-05-17T05:19:23;8.80;99.90
54788;DHT22;59598;48.112;16.280;2023-05-17T05:21:56;8.80;99.90
54788;DHT22;59598;48.112;16.280;2023-05-17T05:24:30;8.80;99.90
54788;DHT22;59598;48.112;16.280;2023-05-17T05:27:02;8.80;99.90
54788;DHT22;59598;48.112;16.280;2023-05-17T05:29:36;8.80;99.90
54788;DHT22;59598;48.112;16.280;2023-05-17T05:32:07;8.70;99.90
54788;DHT22;59598;48.112;16.280;2023-05-17T05:34:39;8.70;99.90
54788;DHT22;59598;48.112;16.280;2023-05-17T05:37:13;8.70;99.90
54788;DHT22;59598;48.112;16.280;2023-05-17T05:39:45;8.60;99.90
54788;DHT22;59598;48.112;16.280;2023-05-17T05:42:18;8.60;99.90
54788;DHT22;59598;48.112;16.280;2023-05-17T05:44:50;8.60;99.90
54788;DHT22;59598;48.112;16.280;2023-05-17T05:47:21;8.60;99.90
54788;DHT22;59598;48.112;16.280;2023-05-17T05:49:52;8.60;99.90
54788;DHT22;59598;48.112;16.280;2023-05-17T05:52:26;8.60;99.90
54788;DHT22;59598;48.112;16.280;2023-05-17T05:54:57;8.50;99.90
54788;DHT22;59598;48.112;16.280;2023-05-17T05:57:30;8.60;99.90
54788;DHT22;59598;48.112;16.280;2023-05-17T06:00:02;8.60;99.90
54788;DHT22;59598;48.112;16.280;2023-05-17T06:02:34;8.60;99.90
54788;DHT22;59598;48.112;16.280;2023-05-17T06:05:10;8.60;99.90
54788;DHT22;59598;48.112;16.280;2023-05-17T06:07:44;8.60;99.90
54788;DHT22;59598;48.112;16.280;2023-05-17T06:10:17;8.60;99.90
54788;DHT22;59598;48.112;16.280;2023-05-17T06:12:49;8.60;99.90
54788;DHT22;59598;48.112;16.280;2023-05-17T06:15:20;8.70;99.90
54788;DHT22;59598;48.112;16.280;2023-05-17T06:17:54;8.70;99.90
54788;DHT22;59598;48.112;16.280;2023-05-17T06:20:28;8.70;99.90
54788;DHT22;59598;48.112;16.280;2023-05-17T06:22:59;8.70;99.90
54788;DHT22;59598;48.112;16.280;2023-05-17T06:25:31;8.80;99.90
54788;DHT22;59598;48.112;16.280;2023-05-17T06:28:03;8.80;99.90
54788;DHT22;59598;48.112;16.280;2023-05-17T06:30:39;8.80;99.90
54788;DHT22;59598;48.112;16.280;2023-05-17T06:33:13;8.80;99.90
54788;DHT22;59598;48.112;16.280;2023-05-17T06:35:53;8.80;99.90
54788;DHT22;59598;48.112;16.280;2023-05-17T06:38:24;8.80;99.90
54788;DHT22;59598;48.112;16.280;2023-05-17T06:41:01;8.80;99.90
54788;DHT22;59598;48.112;16.280;2023-05-17T06:43:35;8.80;99.90
54788;DHT22;59598;48.112;16.280;2023-05-17T06:46:12;8.90;99.90
54788;DHT22;59598;48.112;16.280;2023-05-17T06:48:43;8.90;99.90
54788;DHT22;59598;48.112;16.280;2023-05-17T06:51:14;8.80;99.90
54788;DHT22;59598;48.112;16.280;2023-05-17T06:53:49;8.80;99.90
54788;DHT22;59598;48.112;16.280;2023-05-17T06:56:21;8.80;99.90
54788;DHT22;59598;48.112;16.280;2023-05-17T06:58:52;8.80;99.90
54788;DHT22;59598;48.112;16.280;2023-05-17T07:01:23;8.80;99.90
54788;DHT22;59598;48.112;16.280;2023-05-17T07:03:55;8.80;99.90
54788;DHT22;59598;48.112;16.280;2023-05-17T07:06:32;8.80;99.90
54788;DHT22;59598;48.112;16.280;2023-05-17T07:09:06;8.80;99.90
54788;DHT22;59598;48.112;16.280;2023-05-17T07:11:41;8.80;99.90
54788;DHT22;59598;48.112;16.280;2023-05-17T07:14:12;8.80;99.90
54788;DHT22;59598;48.112;16.280;2023-05-17T07:16:43;8.80;99.90
54788;DHT22;59598;48.112;16.280;2023-05-17T07:19:14;8.80;99.90
54788;DHT22;59598;48.112;16.280;2023-05-17T07:21:51;8.80;99.90
54788;DHT22;59598;48.112;16.280;2023-05-17T07:24:22;8.80;99.90
54788;DHT22;59598;48.112;16.280;2023-05-17T07:26:54;8.80;99.90
54788;DHT22;59598;48.112;16.280;2023-05-17T07:29:28;8.80;99.90
54788;DHT22;59598;48.112;16.280;2023-05-17T07:32:02;8.90;99.90
54788;DHT22;59598;48.112;16.280;2023-05-17T07:34:34;8.90;99.90
54788;DHT22;59598;48.112;16.280;2023-05-17T07:37:05;8.90;99.90
54788;DHT22;59598;48.112;16.280;2023-05-17T07:39:38;8.90;99.90
54788;DHT22;59598;48.112;16.280;2023-05-17T07:42:10;8.90;99.90
54788;DHT22;59598;48.112;16.280;2023-05-17T07:44:44;8.90;99.90
54788;DHT22;59598;48.112;16.280;2023-05-17T07:47:15;9.00;99.90
54788;DHT22;59598;48.112;16.280;2023-05-17T07:49:51;9.00;99.90
54788;DHT22;59598;48.112;16.280;2023-05-17T07:52:25;9.00;99.90
54788;DHT22;59598;48.112;16.280;2023-05-17T07:55:00;9.00;99.90
54788;DHT22;59598;48.112;16.280;2023-05-17T07:57:31;9.00;99.90
54788;DHT22;59598;48.112;16.280;2023-05-17T08:00:05;9.10;99.90
54788;DHT22;59598;48.112;16.280;2023-05-17T08:02:36;9.00;99.90
54788;DHT22;59598;48.112;16.280;2023-05-17T08:05:13;9.00;99.90
54788;DHT22;59598;48.112;16.280;2023-05-17T08:07:44;9.00;99.90
54788;DHT22;59598;48.112;16.280;2023-05-17T08:10:22;9.00;99.90
54788;DHT22;59598;48.112;16.280;2023-05-17T08:12:57;9.00;99.90
54788;DHT22;59598;48.112;16.280;2023-05-17T08:15:29;9.00;99.90
54788;DHT22;59598;48.112;16.280;2023-05-17T08:18:03;8.90;99.90
54788;DHT22;59598;48.112;16.280;2023-05-17T08:20:37;8.80;99.90
54788;DHT22;59598;48.112;16.280;2023-05-17T08:23:08;8.80;99.90
54788;DHT22;59598;48.112;16.280;2023-05-17T08:25:41;8.80;99.90
54788;DHT22;59598;48.112;16.280;2023-05-17T08:28:16;8.90;99.90
54788;DHT22;59598;48.112;16.280;2023-05-17T08:30:49;8.80;99.90
54788;DHT22;59598;48.112;16.280;2023-05-17T08:33:26;8.80;99.90
54788;DHT22;59598;48.112;16.280;2023-05-17T08:35:57;8.80;99.90
54788;DHT22;59598;48.112;16.280;2023-05-17T08:38:33;8.80;99.90
54788;DHT22;59598;48.112;16.280;2023-05-17T08:41:05;8.70;99.90
54788;DHT22;59598;48.112;16.280;2023-05-17T08:43:37;8.70;99.90
54788;DHT22;59598;48.112;16.280;2023-05-17T08:46:14;8.80;99.90
54788;DHT22;59598;48.112;16.280;2023-05-17T08:48:51;8.80;99.90
54788;DHT22;59598;48.112;16.280;2023-05-17T08:51:22;8.80;99.90
54788;DHT22;59598;48.112;16.280;2023-05-17T08:53:57;8.80;99.90
54788;DHT22;59598;48.112;16.280;2023-05-17T08:56:28;8.80;99.90
54788;DHT22;59598;48.112;16.280;2023-05-17T08:59:01;8.80;99.90
54788;DHT22;59598;48.112;16.280;2023-05-17T09:01:39;8.90;99.90
54788;DHT22;59598;48.112;16.280;2023-05-17T09:04:14;8.90;99.90
54788;DHT22;59598;48.112;16.280;2023-05-17T09:06:46;9.00;99.90
54788;DHT22;59598;48.112;16.280;2023-05-17T09:09:20;9.00;99.90
54788;DHT22;59598;48.112;16.280;2023-05-17T09:11:52;9.00;99.90
54788;DHT22;59598;48.112;16.280;2023-05-17T09:14:32;9.10;99.90
54788;DHT22;59598;48.112;16.280;2023-05-17T09:17:07;9.10;99.90
54788;DHT22;59598;48.112;16.280;2023-05-17T09:19:43;9.20;99.90
54788;DHT22;59598;48.112;16.280;2023-05-17T09:22:21;9.20;99.90
54788;DHT22;59598;48.112;16.280;2023-05-17T09:25:02;9.20;99.90
54788;DHT22;59598;48.112;16.280;2023-05-17T09:27:34;9.20;99.90
54788;DHT22;59598;48.112;16.280;2023-05-17T09:30:09;9.20;99.90
54788;DHT22;59598;48.112;16.280;2023-05-17T09:32:44;9.20;99.90
54788;DHT22;59598;48.112;16.280;2023-05-17T09:35:18;9.20;99.90
54788;DHT22;59598;48.112;16.280;2023-05-17T09:37:49;9.20;99.90
54788;DHT22;59598;48.112;16.280;2023-05-17T09:40:26;9.10;99.90
54788;DHT22;59598;48.112;16.280;2023-05-17T09:43:01;9.10;99.90
54788;DHT22;59598;48.112;16.280;2023-05-17T09:45:35;9.10;99.90
54788;DHT22;59598;48.112;16.280;2023-05-17T09:48:11;9.10;99.90
54788;DHT22;59598;48.112;16.280;2023-05-17T09:50:49;9.20;99.90
54788;DHT22;59598;48.112;16.280;2023-05-17T09:56:01;9.20;99.90
54788;DHT22;59598;48.112;16.280;2023-05-17T09:58:35;9.20;99.90
54788;DHT22;59598;48.112;16.280;2023-05-17T10:01:12;9.10;99.90
54788;DHT22;59598;48.112;16.280;2023-05-17T10:03:46;9.10;99.90
54788;DHT22;59598;48.112;16.280;2023-05-17T10:06:23;9.20;99.90
54788;DHT22;59598;48.112;16.280;2023-05-17T10:08:57;9.30;99.90
54788;DHT22;59598;48.112;16.280;2023-05-17T10:11:34;9.30;99.90
54788;DHT22;59598;48.112;16.280;2023-05-17T10:16:44;9.30;99.90
54788;DHT22;59598;48.112;16.280;2023-05-17T10:19:16;9.20;99.90
54788;DHT22;59598;48.112;16.280;2023-05-17T10:21:51;9.30;99.90
54788;DHT22;59598;48.112;16.280;2023-05-17T10:24:27;9.20;99.90
54788;DHT22;59598;48.112;16.280;2023-05-17T10:27:02;9.20;99.90
54788;DHT22;59598;48.112;16.280;2023-05-17T10:29:38;9.20;99.90
54788;DHT22;59598;48.112;16.280;2023-05-17T10:32:12;9.20;99.90
54788;DHT22;59598;48.112;16.280;2023-05-17T10:34:48;9.20;99.90
54788;DHT22;59598;48.112;16.280;2023-05-17T10:37:22;9.10;99.90
54788;DHT22;59598;48.112;16.280;2023-05-17T10:39:55;9.10;99.90
54788;DHT22;59598;48.112;16.280;2023-05-17T10:42:27;9.20;99.90
54788;DHT22;59598;48.112;16.280;2023-05-17T10:45:03;9.10;99.90
54788;DHT22;59598;48.112;16.280;2023-05-17T10:47:38;9.10;99.90
54788;DHT22;59598;48.112;16.280;2023-05-17T10:50:24;9.10;99.90
54788;DHT22;59598;48.112;16.280;2023-05-17T10:52:59;9.10;99.90
54788;DHT22;59598;48.112;16.280;2023-05-17T10:55:41;9.10;99.90
54788;DHT22;59598;48.112;16.280;2023-05-17T10:58:16;9.10;99.90
54788;DHT22;59598;48.112;16.280;2023-05-17T11:00:49;9.20;99.90
54788;DHT22;59598;48.112;16.280;2023-05-17T11:03:27;9.10;99.90
54788;DHT22;59598;48.112;16.280;2023-05-17T11:06:16;8.90;99.90
54788;DHT22;59598;48.112;16.280;2023-05-17T11:09:12;8.80;99.90
54788;DHT22;59598;48.112;16.280;2023-05-17T11:12:09;8.80;99.90
54788;DHT22;59598;48.112;16.280;2023-05-17T11:14:53;8.80;99.90
54788;DHT22;59598;48.112;16.280;2023-05-17T11:17:27;8.80;99.90
54788;DHT22;59598;48.112;16.280;2023-05-17T11:20:04;8.80;99.90
54788;DHT22;59598;48.112;16.280;2023-05-17T11:22:40;8.70;99.90
54788;DHT22;59598;48.112;16.280;2023-05-17T11:25:15;8.60;99.90
54788;DHT22;59598;48.112;16.280;2023-05-17T11:27:50;8.60;99.90
54788;DHT22;59598;48.112;16.280;2023-05-17T11:30:31;8.60;99.90
54788;DHT22;59598;48.112;16.280;2023-05-17T11:33:04;8.60;99.90
54788;DHT22;59598;48.112;16.280;2023-05-17T11:35:40;8.60;99.90
54788;DHT22;59598;48.112;16.280;2023-05-17T11:38:25;8.60;99.90
54788;DHT22;59598;48.112;16.280;2023-05-17T11:40:57;8.60;99.90
54788;DHT22;59598;48.112;16.280;2023-05-17T11:43:47;8.60;99.90
54788;DHT22;59598;48.112;16.280;2023-05-17T11:46:32;8.60;99.90
54788;DHT22;59598;48.112;16.280;2023-05-17T11:49:09;8.70;99.90
54788;DHT22;59598;48.112;16.280;2023-05-17T11:51:41;8.70;99.90
54788;DHT22;59598;48.112;16.280;2023-05-17T11:54:15;8.70;99.90
54788;DHT22;59598;48.112;16.280;2023-05-17T11:56:48;8.80;99.90
54788;DHT22;59598;48.112;16.280;2023-05-17T11:59:20;8.80;99.90
54788;DHT22;59598;48.112;16.280;2023-05-17T12:01:54;8.80;99.90
54788;DHT22;59598;48.112;16.280;2023-05-17T12:04:26;8.70;99.90
54788;DHT22;59598;48.112;16.280;2023-05-17T12:07:00;8.70;99.90
54788;DHT22;59598;48.112;16.280;2023-05-17T12:09:37;8.70;99.90
54788;DHT22;59598;48.112;16.280;2023-05-17T12:12:08;8.80;99.90
54788;DHT22;59598;48.112;16.280;2023-05-17T12:14:42;8.80;99.90
54788;DHT22;59598;48.112;16.280;2023-05-17T12:17:26;8.70;99.90
54788;DHT22;59598;48.112;16.280;2023-05-17T12:20:08;8.80;99.90
54788;DHT22;59598;48.112;16.280;2023-05-17T12:22:55;8.80;99.90
54788;DHT22;59598;48.112;16.280;2023-05-17T12:25:29;8.90;99.90
54788;DHT22;59598;48.112;16.280;2023-05-17T12:28:15;8.90;99.90
54788;DHT22;59598;48.112;16.280;2023-05-17T12:30:54;8.90;99.90
54788;DHT22;59598;48.112;16.280;2023-05-17T12:33:37;8.80;99.90
54788;DHT22;59598;48.112;16.280;2023-05-17T12:36:12;8.80;99.90
54788;DHT22;59598;48.112;16.280;2023-05-17T12:38:46;8.80;99.90
54788;DHT22;59598;48.112;16.280;2023-05-17T12:41:22;8.80;99.90
54788;DHT22;59598;48.112;16.280;2023-05-17T12:43:58;8.80;99.90
54788;DHT22;59598;48.112;16.280;2023-05-17T12:46:31;8.80;99.90
54788;DHT22;59598;48.112;16.280;2023-05-17T12:49:09;8.80;99.90
54788;DHT22;59598;48.112;16.280;2023-05-17T12:51:46;8.80;99.90
54788;DHT22;59598;48.112;16.280;2023-05-17T12:54:24;8.90;99.90
54788;DHT22;59598;48.112;16.280;2023-05-17T12:57:09;9.00;99.90
54788;DHT22;59598;48.112;16.280;2023-05-17T12:59:49;8.90;99.90
54788;DHT22;59598;48.112;16.280;2023-05-17T13:02:22;9.00;99.90
54788;DHT22;59598;48.112;16.280;2023-05-17T13:04:55;9.00;99.90
54788;DHT22;59598;48.112;16.280;2023-05-17T13:07:28;8.90;99.90
54788;DHT22;59598;48.112;16.280;2023-05-17T13:09:59;8.90;99.90
54788;DHT22;59598;48.112;16.280;2023-05-17T13:12:31;8.90;99.90
54788;DHT22;59598;48.112;16.280;2023-05-17T13:15:06;8.80;99.90
54788;DHT22;59598;48.112;16.280;2023-05-17T13:17:40;8.80;99.90
54788;DHT22;59598;48.112;16.280;2023-05-17T13:20:14;8.80;99.90
54788;DHT22;59598;48.112;16.280;2023-05-17T13:22:47;8.70;99.90
54788;DHT22;59598;48.112;16.280;2023-05-17T13:25:21;8.80;99.90
54788;DHT22;59598;48.112;16.280;2023-05-17T13:27:52;8.70;99.90
54788;DHT22;59598;48.112;16.280;2023-05-17T13:30:27;8.80;99.90
54788;DHT22;59598;48.112;16.280;2023-05-17T13:32:59;8.70;99.90
54788;DHT22;59598;48.112;16.280;2023-05-17T13:35:33;8.80;99.90
54788;DHT22;59598;48.112;16.280;2023-05-17T13:38:04;8.70;99.90
54788;DHT22;59598;48.112;16.280;2023-05-17T13:40:38;8.70;99.90
54788;DHT22;59598;48.112;16.280;2023-05-17T13:43:15;8.70;99.90
54788;DHT22;59598;48.112;16.280;2023-05-17T13:45:46;8.70;99.90
54788;DHT22;59598;48.112;16.280;2023-05-17T13:48:24;8.60;99.90
54788;DHT22;59598;48.112;16.280;2023-05-17T13:50:56;8.60;99.90
54788;DHT22;59598;48.112;16.280;2023-05-17T13:53:33;8.60;99.90
54788;DHT22;59598;48.112;16.280;2023-05-17T13:56:05;8.50;99.90
54788;DHT22;59598;48.112;16.280;2023-05-17T13:58:42;8.50;99.90
54788;DHT22;59598;48.112;16.280;2023-05-17T14:01:13;8.50;99.90
54788;DHT22;59598;48.112;16.280;2023-05-17T14:03:45;8.50;99.90
54788;DHT22;59598;48.112;16.280;2023-05-17T14:06:20;8.50;99.90
54788;DHT22;59598;48.112;16.280;2023-05-17T14:08:51;8.50;99.90
54788;DHT22;59598;48.112;16.280;2023-05-17T14:11:25;8.50;99.90
54788;DHT22;59598;48.112;16.280;2023-05-17T14:13:56;8.50;99.90
54788;DHT22;59598;48.112;16.280;2023-05-17T14:16:28;8.60;99.90
54788;DHT22;59598;48.112;16.280;2023-05-17T14:19:01;8.60;99.90
54788;DHT22;59598;48.112;16.280;2023-05-17T14:21:33;8.60;99.90
54788;DHT22;59598;48.112;16.280;2023-05-17T14:24:04;8.60;99.90
54788;DHT22;59598;48.112;16.280;2023-05-17T14:26:35;8.70;99.90
54788;DHT22;59598;48.112;16.280;2023-05-17T14:29:07;8.70;99.90
54788;DHT22;59598;48.112;16.280;2023-05-17T14:31:41;8.70;99.90
54788;DHT22;59598;48.112;16.280;2023-05-17T14:34:13;8.70;99.90
54788;DHT22;59598;48.112;16.280;2023-05-17T14:36:44;8.70;99.90
54788;DHT22;59598;48.112;16.280;2023-05-17T14:39:18;8.70;99.90
54788;DHT22;59598;48.112;16.280;2023-05-17T14:41:54;8.70;99.90
54788;DHT22;59598;48.112;16.280;2023-05-17T14:44:31;8.70;99.90
54788;DHT22;59598;48.112;16.280;2023-05-17T14:47:07;8.70;99.90
54788;DHT22;59598;48.112;16.280;2023-05-17T14:49:41;8.70;99.90
54788;DHT22;59598;48.112;16.280;2023-05-17T14:52:12;8.70;99.90
54788;DHT22;59598;48.112;16.280;2023-05-17T14:54:43;8.70;99.90
54788;DHT22;59598;48.112;16.280;2023-05-17T14:57:15;8.70;99.90
54788;DHT22;59598;48.112;16.280;2023-05-17T14:59:46;8.70;99.90
54788;DHT22;59598;48.112;16.280;2023-05-17T15:02:22;8.70;99.90
54788;DHT22;59598;48.112;16.280;2023-05-17T15:05:02;8.70;99.90
54788;DHT22;59598;48.112;16.280;2023-05-17T15:07:33;8.70;99.90
54788;DHT22;59598;48.112;16.280;2023-05-17T15:10:05;8.80;99.90
54788;DHT22;59598;48.112;16.280;2023-05-17T15:12:36;8.80;99.90
54788;DHT22;59598;48.112;16.280;2023-05-17T15:15:10;8.80;99.90
54788;DHT22;59598;48.112;16.280;2023-05-17T15:17:42;8.80;99.90
54788;DHT22;59598;48.112;16.280;2023-05-17T15:20:14;8.80;99.90
54788;DHT22;59598;48.112;16.280;2023-05-17T15:22:46;8.80;99.90
54788;DHT22;59598;48.112;16.280;2023-05-17T15:25:18;8.80;99.90
54788;DHT22;59598;48.112;16.280;2023-05-17T15:27:49;8.80;99.90
54788;DHT22;59598;48.112;16.280;2023-05-17T15:30:20;8.70;99.90
54788;DHT22;59598;48.112;16.280;2023-05-17T15:32:58;8.70;99.90
54788;DHT22;59598;48.112;16.280;2023-05-17T15:35:29;8.70;99.90
54788;DHT22;59598;48.112;16.280;2023-05-17T15:38:03;8.70;99.90
54788;DHT22;59598;48.112;16.280;2023-05-17T15:40:38;8.70;99.90
54788;DHT22;59598;48.112;16.280;2023-05-17T15:43:09;8.60;99.90
54788;DHT22;59598;48.112;16.280;2023-05-17T15:45:40;8.60;99.90
54788;DHT22;59598;48.112;16.280;2023-05-17T15:48:17;8.70;99.90
54788;DHT22;59598;48.112;16.280;2023-05-17T15:50:48;8.70;99.90
54788;DHT22;59598;48.112;16.280;2023-05-17T15:53:20;8.60;99.90
54788;DHT22;59598;48.112;16.280;2023-05-17T15:55:51;8.60;99.90
54788;DHT22;59598;48.112;16.280;2023-05-17T15:58:30;8.60;99.90
54788;DHT22;59598;48.112;16.280;2023-05-17T16:01:06;8.60;99.90
54788;DHT22;59598;48.112;16.280;2023-05-17T16:03:38;8.60;99.90
54788;DHT22;59598;48.112;16.280;2023-05-17T16:06:11;8.60;99.90
54788;DHT22;59598;48.112;16.280;2023-05-17T16:08:46;8.60;99.90
54788;DHT22;59598;48.112;16.280;2023-05-17T16:11:20;8.60;99.90
54788;DHT22;59598;48.112;16.280;2023-05-17T16:13:54;8.60;99.90
54788;DHT22;59598;48.112;16.280;2023-05-17T16:16:27;8.60;99.90
54788;DHT22;59598;48.112;16.280;2023-05-17T16:19:01;8.60;99.90
54788;DHT22;59598;48.112;16.280;2023-05-17T16:21:34;8.60;99.90
54788;DHT22;59598;48.112;16.280;2023-05-17T16:24:05;8.60;99.90
54788;DHT22;59598;48.112;16.280;2023-05-17T16:26:37;8.60;99.90